createdAt,value
2022-12-20T00:00:57.940Z,30.52
2022-12-20T00:02:03.994Z,30.37
2022-12-20T00:03:07.466Z,30.57
2022-12-20T00:04:15.702Z,31.71
2022-12-20T00:05:19.942Z,32.00
2022-12-20T00:06:27.614Z,33.39
2022-12-20T00:07:31.101Z,32.36
2022-12-20T00:08:38.333Z,33.23
2022-12-20T00:09:41.764Z,35.18
2022-12-20T00:10:51.207Z,34.58
2022-12-20T00:11:54.769Z,32.66
2022-12-20T00:13:00.807Z,31.28
2022-12-20T00:14:04.266Z,33.91
2022-12-20T00:15:11.391Z,31.68
2022-12-20T00:16:19.454Z,30.92
2022-12-20T00:17:25.795Z,32.92
2022-12-20T00:18:29.240Z,30.71
2022-12-20T00:19:35.233Z,31.33
2022-12-20T00:20:38.748Z,33.65
2022-12-20T00:21:45.503Z,32.90
2022-12-20T00:22:49.597Z,35.65
2022-12-20T00:24:01.573Z,30.84
2022-12-20T00:25:05.989Z,31.10
2022-12-20T00:26:17.559Z,33.48
2022-12-20T00:27:22.383Z,30.99
2022-12-20T00:28:28.491Z,32.21
2022-12-20T00:29:35.403Z,33.51
2022-12-20T00:30:38.792Z,29.69
2022-12-20T00:31:44.996Z,30.29
2022-12-20T00:32:49.317Z,29.82
2022-12-20T00:33:58.742Z,30.88
2022-12-20T00:35:02.000Z,30.43
2022-12-20T00:36:09.790Z,29.25
2022-12-20T00:37:13.153Z,29.58
2022-12-20T00:38:20.197Z,29.33
2022-12-20T00:39:23.380Z,29.61
2022-12-20T00:40:29.384Z,28.80
2022-12-20T00:41:36.450Z,27.63
2022-12-20T00:42:42.390Z,29.05
2022-12-20T00:43:47.556Z,30.00
2022-12-20T00:44:53.534Z,29.45
2022-12-20T00:45:57.332Z,30.41
2022-12-20T00:47:03.365Z,27.74
2022-12-20T00:48:07.283Z,28.68
2022-12-20T00:49:14.448Z,28.04
2022-12-20T00:50:18.051Z,27.86
2022-12-20T00:51:27.679Z,29.48
2022-12-20T00:52:31.178Z,28.13
2022-12-20T00:53:38.038Z,27.09
2022-12-20T00:54:42.456Z,26.89
2022-12-20T00:55:50.301Z,28.97
2022-12-20T00:56:58.757Z,28.55
2022-12-20T00:58:02.003Z,28.89
2022-12-20T00:59:07.851Z,31.06
2022-12-20T01:00:13.498Z,29.30
2022-12-20T01:01:24.226Z,32.37
2022-12-20T01:02:27.900Z,30.90
2022-12-20T01:03:34.117Z,30.66
2022-12-20T01:04:38.631Z,30.29
2022-12-20T01:05:54.770Z,31.11
2022-12-20T01:06:58.611Z,31.77
2022-12-20T01:08:04.950Z,30.77
2022-12-20T01:09:08.291Z,28.98
2022-12-20T01:10:15.221Z,28.77
2022-12-20T01:11:23.097Z,27.83
2022-12-20T01:12:31.540Z,31.49
2022-12-20T01:13:39.045Z,30.86
2022-12-20T01:14:45.369Z,29.07
2022-12-20T01:15:49.986Z,27.81
2022-12-20T01:16:57.315Z,28.75
2022-12-20T01:18:01.074Z,28.84
2022-12-20T01:19:08.081Z,28.98
2022-12-20T01:20:12.727Z,27.26
2022-12-20T01:21:22.042Z,26.80
2022-12-20T01:22:26.239Z,27.20
2022-12-20T01:23:32.746Z,27.02
2022-12-20T01:24:38.634Z,28.00
2022-12-20T01:25:41.902Z,26.84
2022-12-20T01:26:49.325Z,28.88
2022-12-20T01:27:57.952Z,28.22
2022-12-20T01:29:04.321Z,27.62
2022-12-20T01:30:10.468Z,26.82
2022-12-20T01:31:20.408Z,26.86
2022-12-20T01:32:23.788Z,27.14
2022-12-20T01:33:30.801Z,27.67
2022-12-20T01:34:34.235Z,27.72
2022-12-20T01:35:40.166Z,28.74
2022-12-20T01:36:43.519Z,28.21
2022-12-20T01:37:49.614Z,28.63
2022-12-20T01:38:58.479Z,29.01
2022-12-20T01:40:04.445Z,29.30
2022-12-20T01:41:08.621Z,29.41
2022-12-20T01:42:18.020Z,29.46
2022-12-20T01:43:25.714Z,30.25
2022-12-20T01:45:10.850Z,29.72
2022-12-20T01:46:14.349Z,30.80
2022-12-20T01:47:21.545Z,30.32
2022-12-20T01:48:27.739Z,29.50
2022-12-20T01:49:41.630Z,29.28
2022-12-20T01:50:45.528Z,29.42
2022-12-20T01:51:59.441Z,30.85
2022-12-20T01:53:06.051Z,29.66
2022-12-20T01:54:22.208Z,28.97
2022-12-20T01:55:30.746Z,28.94
2022-12-20T01:56:39.320Z,30.12
2022-12-20T01:57:52.061Z,30.27
2022-12-20T01:59:03.851Z,28.83
2022-12-20T02:00:10.099Z,29.16
2022-12-20T02:01:23.453Z,28.44
2022-12-20T02:02:28.189Z,29.95
2022-12-20T02:03:35.970Z,27.75
2022-12-20T02:04:39.818Z,30.22
2022-12-20T02:05:49.788Z,31.81
2022-12-20T02:06:54.554Z,31.11
2022-12-20T02:08:01.236Z,29.67
2022-12-20T02:09:08.702Z,30.62
2022-12-20T02:10:16.655Z,30.01
2022-12-20T02:12:03.989Z,28.80
2022-12-20T02:13:35.406Z,30.57
2022-12-20T02:15:09.820Z,29.22
2022-12-20T02:16:25.230Z,29.73
2022-12-20T02:17:53.392Z,29.02
2022-12-20T02:19:18.008Z,28.45
2022-12-20T02:21:01.319Z,28.98
2022-12-20T02:22:26.531Z,30.43
2022-12-20T02:24:04.864Z,30.25
2022-12-20T02:25:49.562Z,28.89
2022-12-20T02:27:46.509Z,28.48
2022-12-20T02:29:23.896Z,27.92
2022-12-20T02:30:47.464Z,27.17
2022-12-20T02:32:05.369Z,27.51
2022-12-20T02:33:17.524Z,27.48
2022-12-20T02:34:26.302Z,28.80
2022-12-20T02:35:36.322Z,27.90
2022-12-20T02:36:40.255Z,29.15
2022-12-20T02:38:00.830Z,29.38
2022-12-20T02:39:05.132Z,26.72
2022-12-20T02:40:13.570Z,28.25
2022-12-20T02:41:25.918Z,27.64
2022-12-20T02:42:36.955Z,27.27
2022-12-20T02:44:01.405Z,27.48
2022-12-20T02:45:18.384Z,27.45
2022-12-20T02:46:31.008Z,27.99
2022-12-20T02:47:43.104Z,28.61
2022-12-20T02:48:54.929Z,27.55
2022-12-20T02:49:59.072Z,28.63
2022-12-20T02:51:11.736Z,27.52
2022-12-20T02:52:18.333Z,28.00
2022-12-20T02:53:26.627Z,28.09
2022-12-20T02:54:31.233Z,28.16
2022-12-20T02:55:51.097Z,29.25
2022-12-20T02:57:06.679Z,28.52
2022-12-20T02:58:29.504Z,29.21
2022-12-20T02:59:45.576Z,28.51
2022-12-20T03:00:59.701Z,28.54
2022-12-20T03:02:09.034Z,28.51
2022-12-20T03:03:25.231Z,29.50
2022-12-20T03:04:38.161Z,30.19
2022-12-20T03:05:48.090Z,29.97
2022-12-20T03:07:05.143Z,29.74
2022-12-20T03:08:09.532Z,28.47
2022-12-20T03:09:15.431Z,29.44
2022-12-20T03:10:20.677Z,29.80
2022-12-20T03:11:26.823Z,31.44
2022-12-20T03:12:30.251Z,28.80
2022-12-20T03:13:37.022Z,28.81
2022-12-20T03:14:44.750Z,29.22
2022-12-20T03:15:53.086Z,28.78
2022-12-20T03:16:56.691Z,27.11
2022-12-20T03:18:05.457Z,28.34
2022-12-20T03:19:09.659Z,28.26
2022-12-20T03:20:16.322Z,26.92
2022-12-20T03:21:19.934Z,27.51
2022-12-20T03:22:26.280Z,28.83
2022-12-20T03:23:29.684Z,29.16
2022-12-20T03:24:36.845Z,29.78
2022-12-20T03:25:44.905Z,31.14
2022-12-20T03:26:57.259Z,30.68
2022-12-20T03:28:01.536Z,35.58
2022-12-20T03:29:08.557Z,34.62
2022-12-20T03:30:15.330Z,32.72
2022-12-20T03:31:21.503Z,33.27
2022-12-20T03:32:28.539Z,33.65
2022-12-20T03:33:37.491Z,32.70
2022-12-20T03:34:43.472Z,30.81
2022-12-20T03:35:52.186Z,30.87
2022-12-20T03:36:55.607Z,32.10
2022-12-20T03:38:01.543Z,33.34
2022-12-20T03:39:05.577Z,32.32
2022-12-20T03:40:17.360Z,33.82
2022-12-20T03:41:23.999Z,34.23
2022-12-20T03:42:32.096Z,34.68
2022-12-20T03:43:35.530Z,36.55
2022-12-20T03:44:41.798Z,35.98
2022-12-20T03:45:46.043Z,36.34
2022-12-20T03:46:52.738Z,35.28
2022-12-20T03:47:57.430Z,35.72
2022-12-20T03:49:08.900Z,34.71
2022-12-20T03:50:20.244Z,35.34
2022-12-20T03:51:26.243Z,35.59
2022-12-20T03:52:30.378Z,34.84
2022-12-20T03:53:36.702Z,34.60
2022-12-20T03:54:40.326Z,35.43
2022-12-20T03:55:53.103Z,35.52
2022-12-20T03:56:56.576Z,34.09
2022-12-20T03:58:03.457Z,34.33
2022-12-20T03:59:12.449Z,33.59
2022-12-20T04:00:20.869Z,34.24
2022-12-20T04:01:36.805Z,35.36
2022-12-20T04:02:40.816Z,34.52
2022-12-20T04:03:49.593Z,37.36
2022-12-20T04:04:58.330Z,36.94
2022-12-20T04:06:02.092Z,41.28
2022-12-20T04:07:08.026Z,40.93
2022-12-20T04:08:13.459Z,38.86
2022-12-20T04:09:20.309Z,41.17
2022-12-20T04:10:28.771Z,37.84
2022-12-20T04:11:36.175Z,37.91
2022-12-20T04:12:44.193Z,38.56
2022-12-20T04:13:55.966Z,38.08
2022-12-20T04:15:00.638Z,38.09
2022-12-20T04:16:08.949Z,42.08
2022-12-20T04:17:12.273Z,41.39
2022-12-20T04:18:20.201Z,41.04
2022-12-20T04:19:27.019Z,41.87
2022-12-20T04:20:33.988Z,40.46
2022-12-20T04:22:02.670Z,37.26
2022-12-20T04:23:16.398Z,38.76
2022-12-20T04:24:23.687Z,37.98
2022-12-20T04:25:47.061Z,37.12
2022-12-20T04:26:55.345Z,37.37
2022-12-20T04:27:58.729Z,36.47
2022-12-20T04:29:04.929Z,37.66
2022-12-20T04:30:11.962Z,39.78
2022-12-20T04:31:23.779Z,39.46
2022-12-20T04:32:28.845Z,38.89
2022-12-20T04:33:35.609Z,39.38
2022-12-20T04:34:39.016Z,35.86
2022-12-20T04:35:47.697Z,35.56
2022-12-20T04:36:51.921Z,36.97
2022-12-20T04:38:07.926Z,36.75
2022-12-20T04:39:11.231Z,37.68
2022-12-20T04:40:27.721Z,38.08
2022-12-20T04:41:36.804Z,37.94
2022-12-20T04:42:46.637Z,35.75
2022-12-20T04:43:57.610Z,36.84
2022-12-20T04:45:08.596Z,39.59
2022-12-20T04:46:14.552Z,39.94
2022-12-20T04:47:17.907Z,39.04
2022-12-20T04:49:48.385Z,38.00
2022-12-20T04:50:59.285Z,41.47
2022-12-20T04:52:18.603Z,41.43
2022-12-20T04:53:39.262Z,41.36
2022-12-20T04:54:42.820Z,43.75
2022-12-20T04:55:56.021Z,38.78
2022-12-20T04:57:00.384Z,41.25
2022-12-20T04:58:07.892Z,45.12
2022-12-20T04:59:17.004Z,40.21
2022-12-20T05:00:23.373Z,39.52
2022-12-20T05:01:37.888Z,44.70
2022-12-20T05:02:41.959Z,53.66
2022-12-20T05:03:52.312Z,52.08
2022-12-20T05:04:57.128Z,42.76
2022-12-20T05:06:05.802Z,61.21
2022-12-20T05:07:09.865Z,58.09
2022-12-20T05:08:18.577Z,46.51
2022-12-20T05:09:26.489Z,44.20
2022-12-20T05:10:32.757Z,41.35
2022-12-20T05:11:41.047Z,43.77
2022-12-20T05:12:45.869Z,48.77
2022-12-20T05:14:00.123Z,43.66
2022-12-20T05:15:03.565Z,40.89
2022-12-20T05:16:10.987Z,39.76
2022-12-20T05:17:15.012Z,35.75
2022-12-20T05:18:21.103Z,40.92
2022-12-20T05:19:32.033Z,39.62
2022-12-20T05:20:39.355Z,37.65
2022-12-20T05:22:12.785Z,38.68
2022-12-20T05:23:34.921Z,42.85
2022-12-20T05:25:03.263Z,41.98
2022-12-20T05:26:24.824Z,39.67
2022-12-20T05:27:32.561Z,39.86
2022-12-20T05:28:37.636Z,38.99
2022-12-20T05:29:43.823Z,43.90
2022-12-20T05:30:47.274Z,46.11
2022-12-20T05:31:55.928Z,39.97
2022-12-20T05:33:00.613Z,44.92
2022-12-20T05:34:07.492Z,44.57
2022-12-20T05:35:13.239Z,39.58
2022-12-20T05:36:19.606Z,42.01
2022-12-20T05:37:27.397Z,41.24
2022-12-20T05:38:36.745Z,44.84
2022-12-20T05:39:46.865Z,44.50
2022-12-20T05:40:58.792Z,42.77
2022-12-20T05:42:02.810Z,43.49
2022-12-20T05:43:09.279Z,47.53
2022-12-20T05:44:22.483Z,43.98
2022-12-20T05:45:29.188Z,47.76
2022-12-20T05:46:41.010Z,45.82
2022-12-20T05:47:49.381Z,46.95
2022-12-20T05:48:55.702Z,46.55
2022-12-20T05:50:01.334Z,48.88
2022-12-20T05:51:12.526Z,49.82
2022-12-20T05:52:38.705Z,56.56
2022-12-20T05:53:45.563Z,58.93
2022-12-20T05:54:50.528Z,59.82
2022-12-20T05:55:58.897Z,52.12
2022-12-20T05:57:06.226Z,50.53
2022-12-20T05:58:16.502Z,50.68
2022-12-20T05:59:31.460Z,71.70
2022-12-20T06:00:34.910Z,64.25
2022-12-20T06:01:41.944Z,67.71
2022-12-20T06:02:46.010Z,52.63
2022-12-20T06:03:53.022Z,57.31
2022-12-20T06:04:59.334Z,57.92
2022-12-20T06:06:10.118Z,59.82
2022-12-20T06:07:19.740Z,57.19
2022-12-20T06:08:32.053Z,58.48
2022-12-20T06:09:37.556Z,66.36
2022-12-20T06:10:47.159Z,68.77
2022-12-20T06:11:51.713Z,59.98
2022-12-20T06:12:58.545Z,48.97
2022-12-20T06:14:02.705Z,50.99
2022-12-20T06:15:11.088Z,48.45
2022-12-20T06:16:20.903Z,56.02
2022-12-20T06:17:24.482Z,49.50
2022-12-20T06:18:32.388Z,46.36
2022-12-20T06:19:40.344Z,42.35
2022-12-20T06:20:53.857Z,46.40
2022-12-20T06:22:01.387Z,50.58
2022-12-20T06:23:27.677Z,49.26
2022-12-20T06:24:48.553Z,44.14
2022-12-20T06:25:58.256Z,48.18
2022-12-20T06:27:07.255Z,45.29
2022-12-20T06:28:13.410Z,48.43
2022-12-20T06:29:17.776Z,46.82
2022-12-20T06:30:34.086Z,47.91
2022-12-20T06:31:58.124Z,45.99
2022-12-20T06:33:06.041Z,47.30
2022-12-20T06:34:09.597Z,49.29
2022-12-20T06:35:20.418Z,47.78
2022-12-20T06:36:28.861Z,44.05
2022-12-20T06:37:32.563Z,39.11
2022-12-20T06:38:38.734Z,43.08
2022-12-20T06:39:44.909Z,43.60
2022-12-20T06:40:50.927Z,45.53
2022-12-20T06:41:55.347Z,42.87
2022-12-20T06:43:01.392Z,42.08
2022-12-20T06:44:05.312Z,40.45
2022-12-20T06:45:13.427Z,39.00
2022-12-20T06:46:17.517Z,37.20
2022-12-20T06:47:25.376Z,38.30
2022-12-20T06:48:28.801Z,39.22
2022-12-20T06:49:35.331Z,41.95
2022-12-20T06:50:52.094Z,41.94
2022-12-20T06:52:01.907Z,42.60
2022-12-20T06:53:20.136Z,45.12
2022-12-20T06:54:23.531Z,44.22
2022-12-20T06:55:32.615Z,42.22
2022-12-20T06:56:41.091Z,41.07
2022-12-20T06:57:49.270Z,40.00
2022-12-20T06:58:53.510Z,37.56
2022-12-20T06:59:59.589Z,38.69
2022-12-20T07:01:03.259Z,40.25
2022-12-20T07:02:09.698Z,38.93
2022-12-20T07:03:16.774Z,49.03
2022-12-20T07:04:21.545Z,49.59
2022-12-20T07:05:27.756Z,51.61
2022-12-20T07:06:31.232Z,51.87
2022-12-20T07:07:44.572Z,53.35
2022-12-20T07:08:51.225Z,49.34
2022-12-20T07:09:57.951Z,47.59
2022-12-20T07:11:12.163Z,43.13
2022-12-20T07:12:15.473Z,42.75
2022-12-20T07:13:21.770Z,44.56
2022-12-20T07:14:27.836Z,43.21
2022-12-20T07:15:32.620Z,45.55
2022-12-20T07:16:39.124Z,42.88
2022-12-20T07:17:44.980Z,43.24
2022-12-20T07:18:50.904Z,42.05
2022-12-20T07:19:56.931Z,43.57
2022-12-20T07:21:02.656Z,44.19
2022-12-20T07:22:09.239Z,44.72
2022-12-20T07:23:12.622Z,46.16
2022-12-20T07:24:19.166Z,41.01
2022-12-20T07:25:22.846Z,42.01
2022-12-20T07:26:32.273Z,41.93
2022-12-20T07:27:35.983Z,42.10
2022-12-20T07:28:43.305Z,45.77
2022-12-20T07:29:49.347Z,51.50
2022-12-20T07:30:53.108Z,49.50
2022-12-20T07:32:00.025Z,45.28
2022-12-20T07:33:03.379Z,39.96
2022-12-20T07:34:09.463Z,41.70
2022-12-20T07:35:17.279Z,42.58
2022-12-20T07:36:23.419Z,45.45
2022-12-20T07:37:32.159Z,46.08
2022-12-20T07:38:38.543Z,51.12
2022-12-20T07:39:44.743Z,45.64
2022-12-20T07:40:48.165Z,46.59
2022-12-20T07:42:00.177Z,51.98
2022-12-20T07:43:04.474Z,53.68
2022-12-20T07:44:10.385Z,52.28
2022-12-20T07:45:13.680Z,51.56
2022-12-20T07:46:21.770Z,51.41
2022-12-20T07:47:27.889Z,52.72
2022-12-20T07:48:36.344Z,47.96
2022-12-20T07:49:43.283Z,48.50
2022-12-20T07:50:47.233Z,51.36
2022-12-20T07:52:01.003Z,48.09
2022-12-20T07:53:12.564Z,48.01
2022-12-20T07:54:27.392Z,48.04
2022-12-20T07:55:32.534Z,45.28
2022-12-20T07:56:46.070Z,44.43
2022-12-20T07:58:05.132Z,53.04
2022-12-20T07:59:15.628Z,50.60
2022-12-20T08:00:23.230Z,49.12
2022-12-20T08:01:32.174Z,48.47
2022-12-20T08:02:47.566Z,45.42
2022-12-20T08:04:03.616Z,40.75
2022-12-20T08:05:14.009Z,45.40
2022-12-20T08:06:23.037Z,42.51
2022-12-20T08:07:33.270Z,43.67
2022-12-20T08:08:46.338Z,41.07
2022-12-20T08:09:52.563Z,41.23
2022-12-20T08:10:59.437Z,44.96
2022-12-20T08:12:07.516Z,46.63
2022-12-20T08:13:14.409Z,49.00
2022-12-20T08:14:24.791Z,47.49
2022-12-20T08:15:30.419Z,48.55
2022-12-20T08:16:36.427Z,56.37
2022-12-20T08:17:40.504Z,49.86
2022-12-20T08:18:46.516Z,41.92
2022-12-20T08:19:52.676Z,41.10
2022-12-20T08:20:59.440Z,37.88
2022-12-20T08:22:05.556Z,42.65
2022-12-20T08:23:12.260Z,44.13
2022-12-20T08:24:18.154Z,42.04
2022-12-20T08:25:25.134Z,44.24
2022-12-20T08:26:31.188Z,52.21
2022-12-20T08:27:37.426Z,45.67
2022-12-20T08:28:47.367Z,42.36
2022-12-20T08:29:50.826Z,40.94
2022-12-20T08:30:56.898Z,39.36
2022-12-20T08:32:02.976Z,41.15
2022-12-20T08:33:09.103Z,43.89
2022-12-20T08:34:15.933Z,46.50
2022-12-20T08:35:21.994Z,44.74
2022-12-20T08:36:25.412Z,47.26
2022-12-20T08:37:31.461Z,43.07
2022-12-20T08:38:37.919Z,46.61
2022-12-20T08:39:44.626Z,44.94
2022-12-20T08:40:48.055Z,44.69
2022-12-20T08:41:54.046Z,45.23
2022-12-20T08:42:58.863Z,44.68
2022-12-20T08:44:07.846Z,44.52
2022-12-20T08:45:15.541Z,46.04
2022-12-20T08:46:21.610Z,47.09
2022-12-20T08:47:24.974Z,48.37
2022-12-20T08:48:32.701Z,45.17
2022-12-20T08:49:43.972Z,43.54
2022-12-20T08:51:01.406Z,42.85
2022-12-20T08:52:07.656Z,44.39
2022-12-20T08:53:13.602Z,41.78
2022-12-20T08:54:19.798Z,39.02
2022-12-20T08:55:29.414Z,43.04
2022-12-20T08:56:36.508Z,41.03
2022-12-20T08:57:42.404Z,39.63
2022-12-20T08:58:46.655Z,41.11
2022-12-20T08:59:55.211Z,42.11
2022-12-20T09:01:06.670Z,41.56
2022-12-20T09:02:13.948Z,41.32
2022-12-20T09:03:20.077Z,45.13
2022-12-20T09:04:26.055Z,41.67
2022-12-20T09:05:32.066Z,44.24
2022-12-20T09:06:38.813Z,45.73
2022-12-20T09:07:45.597Z,45.42
2022-12-20T09:08:49.902Z,40.22
2022-12-20T09:09:55.895Z,45.19
2022-12-20T09:11:09.537Z,41.51
2022-12-20T09:12:13.109Z,49.96
2022-12-20T09:13:20.173Z,51.40
2022-12-20T09:14:26.128Z,47.12
2022-12-20T09:15:36.595Z,43.78
2022-12-20T09:16:42.602Z,43.38
2022-12-20T09:17:48.526Z,41.83
2022-12-20T09:19:00.742Z,41.42
2022-12-20T09:20:12.065Z,41.03
2022-12-20T09:21:22.019Z,39.87
2022-12-20T09:22:28.104Z,40.56
2022-12-20T09:23:33.091Z,43.37
2022-12-20T09:24:41.519Z,42.38
2022-12-20T09:25:50.226Z,40.63
2022-12-20T09:27:00.049Z,38.52
2022-12-20T09:28:06.178Z,39.52
2022-12-20T09:29:12.320Z,39.62
2022-12-20T09:30:19.740Z,40.40
2022-12-20T09:31:30.012Z,41.44
2022-12-20T09:32:33.676Z,40.35
2022-12-20T09:33:39.716Z,41.51
2022-12-20T09:34:43.203Z,42.00
2022-12-20T09:35:50.716Z,41.00
2022-12-20T09:36:54.191Z,42.42
2022-12-20T09:38:01.497Z,42.21
2022-12-20T09:39:07.798Z,40.56
2022-12-20T09:40:21.291Z,42.94
2022-12-20T09:41:37.450Z,41.12
2022-12-20T09:42:44.239Z,41.37
2022-12-20T09:43:48.148Z,40.85
2022-12-20T09:44:54.657Z,40.23
2022-12-20T09:46:04.960Z,41.37
2022-12-20T09:47:23.747Z,42.60
2022-12-20T09:48:36.802Z,39.87
2022-12-20T09:49:49.054Z,42.44
2022-12-20T09:51:15.830Z,47.44
2022-12-20T09:52:50.743Z,52.51
2022-12-20T09:54:18.517Z,51.09
2022-12-20T09:55:37.874Z,50.97
2022-12-20T09:57:04.580Z,47.86
2022-12-20T09:58:45.969Z,49.92
2022-12-20T09:59:52.210Z,47.50
2022-12-20T10:00:58.404Z,46.34
2022-12-20T10:02:19.487Z,42.49
2022-12-20T10:03:39.015Z,40.07
2022-12-20T10:04:45.539Z,39.69
2022-12-20T10:05:57.767Z,36.45
2022-12-20T10:07:39.253Z,37.33
2022-12-20T10:08:56.439Z,36.05
2022-12-20T10:10:35.766Z,33.17
2022-12-20T10:12:07.208Z,34.32
2022-12-20T10:13:49.657Z,35.89
2022-12-20T10:15:21.865Z,34.21
2022-12-20T10:16:48.021Z,37.68
2022-12-20T10:18:19.847Z,36.21
2022-12-20T10:20:08.742Z,36.32
2022-12-20T10:21:35.816Z,40.33
2022-12-20T10:22:55.643Z,37.99
2022-12-20T10:24:07.317Z,36.99
2022-12-20T10:25:23.513Z,35.79
2022-12-20T10:26:31.679Z,34.89
2022-12-20T10:27:39.001Z,35.83
2022-12-20T10:28:50.753Z,34.98
2022-12-20T10:30:00.913Z,38.10
2022-12-20T10:31:14.316Z,36.19
2022-12-20T10:32:29.333Z,40.16
2022-12-20T10:33:33.924Z,38.38
2022-12-20T10:34:48.473Z,38.25
2022-12-20T10:35:52.580Z,37.42
2022-12-20T10:37:16.898Z,39.91
2022-12-20T10:38:23.070Z,44.07
2022-12-20T10:39:46.202Z,44.30
2022-12-20T10:41:23.035Z,38.62
2022-12-20T10:42:43.496Z,37.44
2022-12-20T10:43:57.753Z,37.33
2022-12-20T10:45:02.804Z,35.89
2022-12-20T10:46:12.917Z,35.97
2022-12-20T10:47:40.930Z,35.71
2022-12-20T10:48:51.933Z,37.19
2022-12-20T10:50:18.174Z,37.83
2022-12-20T10:51:26.057Z,40.93
2022-12-20T10:52:29.736Z,38.63
2022-12-20T10:53:36.076Z,37.78
2022-12-20T10:54:46.528Z,36.88
2022-12-20T10:55:52.279Z,36.58
2022-12-20T10:57:02.402Z,33.91
2022-12-20T10:58:18.512Z,35.91
2022-12-20T10:59:39.888Z,39.87
2022-12-20T11:00:47.532Z,39.08
2022-12-20T11:01:52.263Z,40.04
2022-12-20T11:03:13.499Z,38.43
2022-12-20T11:04:32.568Z,35.52
2022-12-20T11:05:39.010Z,38.16
2022-12-20T11:06:48.658Z,36.52
2022-12-20T11:09:32.715Z,37.81
2022-12-20T11:10:36.545Z,36.87
2022-12-20T11:11:42.567Z,37.89
2022-12-20T11:12:56.938Z,38.26
2022-12-20T11:14:18.892Z,39.05
2022-12-20T11:15:34.176Z,40.53
2022-12-20T11:16:44.712Z,39.71
2022-12-20T11:17:53.761Z,39.67
2022-12-20T11:19:25.375Z,39.03
2022-12-20T11:20:48.490Z,39.14
2022-12-20T11:22:12.712Z,38.94
2022-12-20T11:23:38.864Z,39.10
2022-12-20T11:25:02.768Z,38.74
2022-12-20T11:26:39.430Z,39.65
2022-12-20T11:28:09.351Z,37.31
2022-12-20T11:29:50.723Z,38.38
2022-12-20T11:31:18.887Z,38.65
2022-12-20T11:32:53.324Z,38.34
2022-12-20T11:34:20.040Z,39.85
2022-12-20T11:35:42.078Z,40.23
2022-12-20T11:37:20.692Z,42.83
2022-12-20T11:38:45.670Z,48.09
2022-12-20T11:40:24.840Z,49.50
2022-12-20T11:41:47.813Z,49.50
2022-12-20T11:43:17.462Z,48.44
2022-12-20T11:44:55.357Z,42.75
2022-12-20T11:46:31.045Z,47.36
2022-12-20T11:48:10.071Z,46.96
2022-12-20T11:50:03.153Z,48.24
2022-12-20T11:51:27.169Z,47.93
2022-12-20T11:52:49.738Z,46.73
2022-12-20T11:54:13.791Z,55.09
2022-12-20T11:55:27.901Z,49.49
2022-12-20T11:56:44.770Z,44.77
2022-12-20T11:58:21.074Z,44.71
2022-12-20T11:59:40.676Z,42.80
2022-12-20T12:00:59.276Z,42.32
2022-12-20T12:02:16.167Z,43.54
2022-12-20T12:03:30.856Z,46.81
2022-12-20T12:04:47.072Z,48.20
2022-12-20T12:05:59.205Z,48.80
2022-12-20T12:07:16.641Z,42.69
2022-12-20T12:08:34.530Z,47.61
2022-12-20T12:09:51.278Z,46.69
2022-12-20T12:11:25.719Z,41.91
2022-12-20T12:12:45.669Z,43.15
2022-12-20T12:13:51.476Z,41.44
2022-12-20T12:15:14.317Z,41.61
2022-12-20T12:16:30.882Z,46.73
2022-12-20T12:17:50.361Z,49.85
2022-12-20T12:18:56.948Z,44.32
2022-12-20T12:20:29.925Z,42.72
2022-12-20T12:21:45.836Z,52.09
2022-12-20T12:23:01.713Z,50.02
2022-12-20T12:24:26.983Z,46.35
2022-12-20T12:25:30.436Z,50.33
2022-12-20T12:26:41.212Z,58.87
2022-12-20T12:27:48.724Z,59.81
2022-12-20T12:28:57.274Z,61.38
2022-12-20T12:30:03.447Z,63.70
2022-12-20T12:31:21.676Z,58.74
2022-12-20T12:32:44.134Z,49.75
2022-12-20T12:34:08.807Z,46.67
2022-12-20T12:35:56.292Z,49.74
2022-12-20T12:37:51.160Z,53.84
2022-12-20T12:39:49.530Z,53.17
2022-12-20T12:41:43.277Z,45.04
2022-12-20T12:43:39.083Z,50.40
2022-12-20T12:44:57.748Z,48.44
2022-12-20T12:46:14.675Z,54.32
2022-12-20T12:47:39.900Z,50.83
2022-12-20T12:48:57.698Z,49.63
2022-12-20T12:50:08.246Z,44.29
2022-12-20T12:51:22.227Z,44.10
2022-12-20T12:52:46.603Z,41.26
2022-12-20T12:53:56.934Z,41.52
2022-12-20T12:55:03.194Z,41.28
2022-12-20T12:56:45.475Z,41.68
2022-12-20T12:57:57.928Z,42.69
2022-12-20T12:59:54.729Z,42.65
2022-12-20T13:01:05.205Z,41.99
2022-12-20T13:02:37.546Z,42.76
2022-12-20T13:04:09.731Z,43.40
2022-12-20T13:05:38.675Z,44.69
2022-12-20T13:07:00.340Z,43.87
2022-12-20T13:08:17.712Z,42.49
2022-12-20T13:09:38.144Z,43.70
2022-12-20T13:11:06.199Z,43.90
2022-12-20T13:13:02.879Z,43.49
2022-12-20T13:14:30.895Z,48.31
2022-12-20T13:16:16.908Z,49.09
2022-12-20T13:17:53.073Z,46.94
2022-12-20T13:19:16.611Z,51.60
2022-12-20T13:20:24.541Z,53.15
2022-12-20T13:21:40.463Z,55.77
2022-12-20T13:23:17.987Z,54.06
2022-12-20T13:24:55.235Z,60.53
2022-12-20T13:25:58.887Z,59.36
2022-12-20T13:27:24.636Z,47.00
2022-12-20T13:28:49.631Z,43.93
2022-12-20T13:30:19.083Z,45.05
2022-12-20T13:31:36.972Z,49.36
2022-12-20T13:33:15.832Z,54.38
2022-12-20T13:34:41.553Z,51.39
2022-12-20T13:36:19.684Z,46.47
2022-12-20T13:37:57.361Z,44.50
2022-12-20T13:39:33.650Z,46.19
2022-12-20T13:40:45.616Z,49.46
2022-12-20T13:42:18.573Z,46.63
2022-12-20T13:43:37.225Z,46.25
2022-12-20T13:44:48.790Z,51.28
2022-12-20T13:46:06.242Z,54.20
2022-12-20T13:47:37.680Z,50.88
2022-12-20T13:48:54.207Z,56.17
2022-12-20T13:50:05.808Z,52.06
2022-12-20T13:51:10.683Z,52.00
2022-12-20T13:52:33.158Z,51.82
2022-12-20T13:53:42.436Z,49.27
2022-12-20T13:54:50.790Z,50.91
2022-12-20T13:55:59.236Z,50.86
2022-12-20T13:57:06.701Z,59.19
2022-12-20T13:58:25.166Z,55.72
2022-12-20T13:59:33.837Z,51.37
2022-12-20T14:00:41.520Z,48.11
2022-12-20T14:01:57.062Z,48.21
2022-12-20T14:03:03.695Z,50.90
2022-12-20T14:04:10.959Z,49.90
2022-12-20T14:05:26.728Z,48.89
2022-12-20T14:06:33.186Z,51.35
2022-12-20T14:07:41.992Z,49.32
2022-12-20T14:08:52.187Z,47.78
2022-12-20T14:10:02.968Z,52.87
2022-12-20T14:11:16.047Z,58.32
2022-12-20T14:12:27.380Z,65.08
2022-12-20T14:13:39.678Z,59.55
2022-12-20T14:14:49.999Z,60.04
2022-12-20T14:15:58.646Z,59.64
2022-12-20T14:17:19.848Z,55.17
2022-12-20T14:18:29.049Z,59.02
2022-12-20T14:19:33.351Z,56.67
2022-12-20T14:20:42.408Z,55.29
2022-12-20T14:21:50.594Z,50.39
2022-12-20T14:23:06.439Z,53.96
2022-12-20T14:24:21.701Z,51.15
2022-12-20T14:25:38.706Z,51.94
2022-12-20T14:26:48.649Z,53.36
2022-12-20T14:27:52.295Z,58.58
2022-12-20T14:29:07.981Z,58.50
2022-12-20T14:30:35.004Z,52.44
2022-12-20T14:31:46.666Z,55.52
2022-12-20T14:32:50.967Z,52.48
2022-12-20T14:34:10.711Z,48.29
2022-12-20T14:35:21.564Z,49.72
2022-12-20T14:36:27.611Z,51.12
2022-12-20T14:37:36.474Z,48.83
2022-12-20T14:38:45.382Z,49.31
2022-12-20T14:40:19.586Z,52.04
2022-12-20T14:41:39.277Z,56.21
2022-12-20T14:42:46.644Z,55.43
2022-12-20T14:44:07.132Z,52.52
2022-12-20T14:45:21.162Z,54.38
2022-12-20T14:46:27.520Z,54.43
2022-12-20T14:47:34.533Z,53.40
2022-12-20T14:48:41.502Z,58.78
2022-12-20T14:49:55.463Z,56.19
2022-12-20T14:51:01.604Z,57.29
2022-12-20T14:52:20.928Z,57.25
2022-12-20T14:53:30.694Z,58.17
2022-12-20T14:56:26.433Z,54.97
2022-12-20T14:57:48.999Z,54.31
2022-12-20T14:59:17.532Z,54.05
2022-12-20T15:00:28.684Z,58.26
2022-12-20T15:01:35.837Z,55.21
2022-12-20T15:02:55.474Z,56.50
2022-12-20T15:04:01.010Z,57.61
2022-12-20T15:05:27.658Z,57.52
2022-12-20T15:06:46.045Z,61.10
2022-12-20T15:07:49.565Z,57.03
2022-12-20T15:08:55.545Z,57.32
2022-12-20T15:10:01.941Z,60.45
2022-12-20T15:11:24.588Z,66.28
2022-12-20T15:12:32.652Z,66.03
2022-12-20T15:13:45.736Z,57.32
2022-12-20T15:14:54.862Z,54.63
2022-12-20T15:16:04.817Z,52.88
2022-12-20T15:17:15.927Z,56.46
2022-12-20T15:18:24.832Z,53.54
2022-12-20T15:19:31.630Z,51.16
2022-12-20T15:20:35.523Z,52.81
2022-12-20T15:21:45.986Z,56.69
2022-12-20T15:22:49.462Z,48.06
2022-12-20T15:24:00.123Z,47.37
2022-12-20T15:25:12.194Z,48.82
2022-12-20T15:26:20.945Z,53.03
2022-12-20T15:27:27.382Z,50.06
2022-12-20T15:28:33.502Z,48.57
2022-12-20T15:29:40.598Z,45.08
2022-12-20T15:30:51.309Z,44.59
2022-12-20T15:32:10.510Z,55.48
2022-12-20T15:33:23.065Z,52.04